• Join FlightAware (Why Join?)
  • Login
  • US Flag 
Trick or treat! (Boo!!) 
01:09AM EDT


 

Airport Tracker/Info


-or-


 

Live Flight TrackerFlight Track Log ✈ SWA561 ✈ 25-Apr-2013 ✈ KOAK - KLAX

Flight Track Log - Related Links

Times and Time Zones

All times are in EDT time to prevent confusion due to time zone crossing. See the SWA561 flight status page for this flight to view local times or setup timezone preferences in your user account.

Time Position Orientation Groundspeed Altitude Reporting Facility
EDT Latitude Longitude Course Direction KTS MPH feet Rate Location/Type
07:57PM 37.7333 -122.2500 288° West 153 176 1,500  Level Northern Cal TRACON
07:58PM 37.7500 -122.3167 288° West 217 250 5,000 3,600 Climbing Northern Cal TRACON
07:59PM 37.7481 -122.3528 266° West 216 249 7,800 3,600 Climbing Oakland Center
08:00PM 37.6861 -122.3739 195° South 233 268 11,400 3,660 Climbing Oakland Center
08:00PM 37.6667 -122.3833 201° Southwest 251 289 12,500 2,880 Climbing Northern Cal TRACON
08:01PM 37.6167 -122.3850 182° South 263 303 14,400 1,920 Climbing Oakland Center
08:02PM 37.5597 -122.3022 131° Southeast 324 373 16,000 2,160 Climbing Oakland Center
08:03PM 37.4864 -122.2106 135° Southeast 372 428 18,900 2,820 Climbing Oakland Center
08:04PM 37.4089 -122.1136 135° Southeast 391 450 21,800 3,060 Climbing Oakland Center
08:05PM 37.3122 -121.9928 135° Southeast 410 472 25,200 2,820 Climbing Oakland Center
08:06PM 37.2294 -121.8883 135° Southeast 422 486 27,600 2,220 Climbing Oakland Center
08:07PM 37.1386 -121.7753 135° Southeast 435 501 29,800 1,860 Climbing Oakland Center
08:08PM 37.0533 -121.6719 136° Southeast 448 516 31,500 2,040 Climbing Oakland Center
08:09PM 36.9639 -121.5636 136° Southeast 450 518 34,100 2,160 Climbing Oakland Center
08:10PM 36.8800 -121.4553 134° Southeast 437 503 36,000 1,440 Climbing Oakland Center
08:11PM 36.7836 -121.3425 137° Southeast 439 505 37,100 840 Climbing Oakland Center
08:12PM 36.6919 -121.2294 135° Southeast 458 527 37,800 900 Climbing Oakland Center
08:13PM 36.5989 -121.1164 136° Southeast 467 537 39,000 540 Climbing Oakland Center
08:14PM 36.5081 -121.0056 136° Southeast 458 527 39,000  Level Oakland Center
08:15PM 36.4167 -120.8969 136° Southeast 453 521 39,000  Level Oakland Center
08:16PM 36.3283 -120.7850 134° Southeast 454 522 39,000  Level Oakland Center
08:17PM 36.2186 -120.6578 137° Southeast 450 518 39,000  Level Oakland Center
08:18PM 36.1289 -120.5492 136° Southeast 450 518 39,000  Level Oakland Center
08:19PM 36.0358 -120.4358 135° Southeast 480 552 39,000  Level Oakland Center
08:20PM 35.9464 -120.3325 137° Southeast 442 509 39,000  Level Oakland Center
08:21PM 35.8533 -120.2233 136° Southeast 455 524 39,000  Level Oakland Center
08:22PM 35.7611 -120.1144 136° Southeast 456 525 39,000  Level Oakland Center
08:23PM 35.6689 -120.0044 136° Southeast 456 525 39,000  Level Oakland Center
08:24PM 35.5667 -119.9089 143° Southeast 452 520 39,000  Level Oakland Center
08:25PM 35.4614 -119.8181 145° Southeast 457 526 39,000  Level Oakland Center
08:26PM 35.3567 -119.7286 145° Southeast 453 521 39,000 -120 Level Oakland Center
08:27PM 35.3158 -119.6928 144° Southeast 456 525 38,900 -1,260 Descending Los Angeles Center
08:28PM 35.2344 -119.6225 145° Southeast 450 518 37,300 -2,400 Descending Los Angeles Center
08:29PM 35.1125 -119.5181 145° Southeast 446 513 33,900 -3,000 Descending Los Angeles Center
08:30PM 35.0078 -119.4281 145° Southeast 454 522 31,100 -2,760 Descending Los Angeles Center
08:31PM 34.8858 -119.3244 145° Southeast 448 516 28,300 -2,520 Descending Los Angeles Center
08:32PM 34.7872 -119.2422 146° Southeast 434 499 26,000 -1,980 Descending Los Angeles Center
08:33PM 34.6928 -119.1631 145° Southeast 415 478 23,900 -2,160 Descending Los Angeles Center
08:34PM 34.5747 -119.0647 146° Southeast 399 459 21,200 -2,220 Descending Los Angeles Center
08:35PM 34.4886 -118.9919 145° Southeast 380 437 19,300 -1,920 Descending Los Angeles Center
08:36PM 34.4039 -118.9214 146° Southeast 370 426 17,300 -2,040 Descending Los Angeles Center
08:37PM 34.3169 -118.8658 152° Southeast 355 409 15,200 -2,040 Descending Los Angeles Center
08:38PM 34.2217 -118.8314 163° South 356 410 13,100 -2,220 Descending Los Angeles Center
08:39PM 34.1119 -118.7914 163° South 346 398 10,700 -1,500 Descending Los Angeles Center
08:40PM 34.0372 -118.7336 147° Southeast 305 351 10,000 -420 Descending Los Angeles Center
08:41PM 34.0272 -118.6425 98° East 272 313 9,900 -780 Descending Los Angeles Center
08:42PM 34.0189 -118.5528 96° East 269 310 8,500 -1,380 Descending Los Angeles Center
08:44PM 34.0100 -118.4564 96° East 267 307 7,100 -900 Descending Los Angeles Center
08:45PM 34.0203 -118.3842 80° East 257 296 6,700 -1,200 Descending Los Angeles Center
08:46PM 34.0319 -118.2806 82° East 258 297 4,600 -1,200 Descending Los Angeles Center
08:47PM 34.0033 -118.2342 127° Southeast 212 244 4,200 -780 Descending Los Angeles Center
08:48PM 33.9689 -118.2742 224° Southwest 182 209 3,000 -1,260 Descending Los Angeles Center
08:49PM 33.9619 -118.3236 260° West 162 186 1,600 -1,140 Descending Los Angeles Center
08:50PM 33.9567 -118.3669 262° West 145 167 700 -720 Descending Los Angeles Center
08:51PM 33.9506 -118.4183 262° West 132 152 100 -540 Descending Los Angeles Center
08:53PM 33.9425 -118.4081 228° Southwest  Level Estimated